createdAt,value
2019-03-24T00:00:37.294Z,60.07
2019-03-24T00:04:54.066Z,52.37
2019-03-24T00:09:10.600Z,45.70
2019-03-24T00:13:27.415Z,60.17
2019-03-24T00:17:44.633Z,49.50
2019-03-24T00:22:01.861Z,62.23
2019-03-24T00:26:18.410Z,72.37
2019-03-24T00:30:34.995Z,46.07
2019-03-24T00:34:51.539Z,43.47
2019-03-24T00:39:08.396Z,54.83
2019-03-24T00:43:24.927Z,75.50
2019-03-24T00:47:41.467Z,57.93
2019-03-24T00:51:57.977Z,42.37
2019-03-24T00:56:14.502Z,49.50
2019-03-24T01:00:47.926Z,55.13
2019-03-24T01:05:05.823Z,71.50
2019-03-24T01:09:22.483Z,60.57
2019-03-24T01:13:40.036Z,42.00
2019-03-24T01:17:57.473Z,58.67
2019-03-24T01:22:14.494Z,59.70
2019-03-24T01:26:31.016Z,75.13
2019-03-24T01:30:49.866Z,42.80
2019-03-24T01:35:07.492Z,36.87
2019-03-24T01:39:24.032Z,62.37
2019-03-24T01:43:40.550Z,44.60
2019-03-24T01:47:57.078Z,59.23
2019-03-24T01:52:13.577Z,68.73
2019-03-24T01:56:30.198Z,69.43
2019-03-24T02:00:47.020Z,59.00
2019-03-24T02:05:06.879Z,96.30
2019-03-24T02:09:23.543Z,79.93
2019-03-24T02:13:40.043Z,52.23
2019-03-24T02:17:56.554Z,69.37
2019-03-24T02:22:13.187Z,74.17
2019-03-24T02:26:29.689Z,73.80
2019-03-24T02:30:46.203Z,69.57
2019-03-24T02:35:04.851Z,69.53
2019-03-24T02:39:21.702Z,83.30
2019-03-24T02:43:38.624Z,72.97
2019-03-24T02:47:55.166Z,82.37
2019-03-24T02:52:12.548Z,65.40
2019-03-24T02:56:29.412Z,45.23
2019-03-24T03:00:46.056Z,86.63
2019-03-24T03:05:07.746Z,71.87
2019-03-24T03:09:24.302Z,79.83
2019-03-24T03:13:40.763Z,53.03
2019-03-24T03:17:58.336Z,61.37
2019-03-24T03:22:15.879Z,55.93
2019-03-24T03:26:32.384Z,74.53
2019-03-24T03:30:48.996Z,37.63
2019-03-24T03:35:06.468Z,43.00
2019-03-24T03:39:22.929Z,63.80
2019-03-24T03:43:40.901Z,66.63
2019-03-24T03:47:57.532Z,63.63
2019-03-24T03:52:14.031Z,78.70
2019-03-24T03:56:30.976Z,64.60
2019-03-24T04:00:47.496Z,57.40
2019-03-24T04:05:05.128Z,88.33
2019-03-24T04:09:21.636Z,80.67
2019-03-24T04:13:38.202Z,81.97
2019-03-24T04:17:54.659Z,44.53
2019-03-24T04:22:11.181Z,72.17
2019-03-24T04:26:27.921Z,45.53
2019-03-24T04:30:44.727Z,52.87
2019-03-24T04:35:01.249Z,53.83
2019-03-24T04:39:18.032Z,56.00
2019-03-24T04:43:34.580Z,91.80
2019-03-24T04:47:51.138Z,84.67
2019-03-24T04:52:07.615Z,104.50
2019-03-24T04:56:25.283Z,103.17
2019-03-24T05:00:44.203Z,84.30
2019-03-24T05:05:01.026Z,64.20
2019-03-24T05:09:17.684Z,75.83
2019-03-24T05:13:34.185Z,87.43
2019-03-24T05:17:50.906Z,51.53
2019-03-24T05:22:07.414Z,94.87
2019-03-24T05:26:23.943Z,86.87
2019-03-24T05:30:40.727Z,53.97
2019-03-24T05:34:57.572Z,100.77
2019-03-24T05:39:14.076Z,44.40
2019-03-24T05:43:30.923Z,60.50
2019-03-24T05:47:47.445Z,59.50
2019-03-24T05:52:04.463Z,62.20
2019-03-24T05:56:20.960Z,97.47
2019-03-24T06:00:37.507Z,71.73
2019-03-24T06:04:54.437Z,90.03
2019-03-24T06:09:10.960Z,78.03
2019-03-24T06:13:27.445Z,89.67
2019-03-24T06:17:47.963Z,91.97
2019-03-24T06:22:03.162Z,108.53
2019-03-24T06:26:19.942Z,94.07
2019-03-24T06:30:36.499Z,93.13
2019-03-24T06:34:53.003Z,88.73
2019-03-24T06:39:09.517Z,57.03
2019-03-24T06:43:26.026Z,83.07
2019-03-24T06:47:42.574Z,95.13
2019-03-24T06:51:59.374Z,99.30
2019-03-24T06:56:15.936Z,80.67
2019-03-24T07:00:32.401Z,101.23
2019-03-24T07:04:49.029Z,101.73
2019-03-24T07:09:05.834Z,70.53
2019-03-24T07:13:22.385Z,49.40
2019-03-24T07:17:47.307Z,80.83
2019-03-24T07:22:04.048Z,70.40
2019-03-24T07:26:20.931Z,76.83
2019-03-24T07:30:37.776Z,60.53
2019-03-24T07:34:54.701Z,78.77
2019-03-24T07:39:11.225Z,70.00
2019-03-24T07:43:28.982Z,46.10
2019-03-24T07:47:45.650Z,68.17
2019-03-24T07:52:02.860Z,49.37
2019-03-24T07:56:19.806Z,60.83
2019-03-24T08:00:37.037Z,56.77
2019-03-24T08:04:53.553Z,54.20
2019-03-24T08:09:10.067Z,79.27
2019-03-24T08:13:26.785Z,77.80
2019-03-24T08:17:43.302Z,76.37
2019-03-24T08:21:59.843Z,67.10
2019-03-24T08:26:16.635Z,73.93
2019-03-24T08:30:34.853Z,77.70
2019-03-24T08:34:51.728Z,57.60
2019-03-24T08:39:08.654Z,63.10
2019-03-24T08:43:25.280Z,71.03
2019-03-24T08:47:41.794Z,67.10
2019-03-24T08:51:58.415Z,61.33
2019-03-24T08:56:15.217Z,66.10
2019-03-24T09:00:31.749Z,56.93
2019-03-24T09:04:48.638Z,69.70
2019-03-24T09:09:05.877Z,72.73
2019-03-24T09:13:22.535Z,56.67
2019-03-24T09:17:41.168Z,69.97
2019-03-24T09:21:57.591Z,68.27
2019-03-24T09:26:14.211Z,58.40
2019-03-24T09:30:33.289Z,65.53
2019-03-24T09:34:50.105Z,58.47
2019-03-24T09:39:06.746Z,56.30
2019-03-24T09:43:23.253Z,63.80
2019-03-24T09:47:39.936Z,67.60
2019-03-24T09:51:56.490Z,60.80
2019-03-24T09:56:13.414Z,50.90
2019-03-24T10:00:30.220Z,49.40
2019-03-24T10:04:46.728Z,49.13
2019-03-24T10:09:05.530Z,51.87
2019-03-24T10:13:22.331Z,56.70
2019-03-24T10:17:38.956Z,59.33
2019-03-24T10:21:55.743Z,56.10
2019-03-24T10:26:12.287Z,59.40
2019-03-24T10:30:28.797Z,46.60
2019-03-24T10:34:45.384Z,53.43
2019-03-24T10:39:02.045Z,56.03
2019-03-24T10:43:18.565Z,49.60
2019-03-24T10:47:35.471Z,54.67
2019-03-24T10:51:52.017Z,46.67
2019-03-24T10:56:08.511Z,68.13
2019-03-24T11:00:37.692Z,50.33
2019-03-24T11:04:54.161Z,49.73
2019-03-24T11:09:10.670Z,48.37
2019-03-24T11:13:27.600Z,49.97
2019-03-24T11:17:44.224Z,45.57
2019-03-24T11:22:00.751Z,59.40
2019-03-24T11:26:17.345Z,53.80
2019-03-24T11:30:33.866Z,42.03
2019-03-24T11:34:50.991Z,47.23
2019-03-24T11:39:07.710Z,46.37
2019-03-24T11:43:24.233Z,44.33
2019-03-24T11:47:40.792Z,42.23
2019-03-24T11:51:57.235Z,49.93
2019-03-24T11:56:13.904Z,45.57
2019-03-24T12:00:34.110Z,40.20
2019-03-24T12:04:50.722Z,48.93
2019-03-24T12:09:07.426Z,40.33
2019-03-24T12:13:23.945Z,32.53
2019-03-24T12:17:40.889Z,35.87
2019-03-24T12:21:57.688Z,36.40
2019-03-24T12:26:14.236Z,39.43
2019-03-24T12:30:30.967Z,40.20
2019-03-24T12:34:47.739Z,40.20
2019-03-24T12:39:04.952Z,32.67
2019-03-24T12:43:21.501Z,40.67
2019-03-24T12:47:37.994Z,40.97
2019-03-24T12:51:54.521Z,41.57
2019-03-24T12:56:11.185Z,37.77
2019-03-24T13:00:33.703Z,36.30
2019-03-24T13:04:50.232Z,32.23
2019-03-24T13:09:06.739Z,28.40
2019-03-24T13:13:23.768Z,35.30
2019-03-24T13:17:40.304Z,32.40
2019-03-24T13:21:57.564Z,31.97
2019-03-24T13:26:14.368Z,35.07
2019-03-24T13:30:31.969Z,27.25
2019-03-24T13:34:50.821Z,27.87
2019-03-24T13:39:07.779Z,31.17
2019-03-24T13:43:29.062Z,30.80
2019-03-24T13:47:48.098Z,29.97
2019-03-24T13:52:05.127Z,30.40
2019-03-24T13:56:21.786Z,23.17
2019-03-24T14:00:39.592Z,24.13
2019-03-24T14:04:57.067Z,29.33
2019-03-24T14:09:13.657Z,27.37
2019-03-24T14:13:30.128Z,32.77
2019-03-24T14:17:46.643Z,25.43
2019-03-24T14:22:03.753Z,30.63
2019-03-24T14:26:20.288Z,22.57
2019-03-24T14:30:45.844Z,25.97
2019-03-24T14:35:05.782Z,24.00
2019-03-24T14:39:22.238Z,28.47
2019-03-24T14:43:38.741Z,21.63
2019-03-24T14:47:55.407Z,26.90
2019-03-24T14:52:11.938Z,28.07
2019-03-24T14:56:28.511Z,25.63
2019-03-24T15:00:45.434Z,23.53
2019-03-24T15:05:05.285Z,34.57
2019-03-24T15:09:21.870Z,35.43
2019-03-24T15:13:38.642Z,36.30
2019-03-24T15:17:55.208Z,35.60
2019-03-24T15:22:12.052Z,31.47
2019-03-24T15:26:28.627Z,30.97
2019-03-24T15:30:45.643Z,37.23
2019-03-24T15:35:04.985Z,33.77
2019-03-24T15:39:21.449Z,35.03
2019-03-24T15:43:41.039Z,37.80
2019-03-24T15:47:57.055Z,32.47
2019-03-24T15:52:13.640Z,33.57
2019-03-24T15:56:31.549Z,34.10
2019-03-24T16:00:48.928Z,41.03
2019-03-24T16:05:07.845Z,40.70
2019-03-24T16:09:24.630Z,40.90
2019-03-24T16:13:41.288Z,32.40
2019-03-24T16:18:03.960Z,32.20
2019-03-24T16:22:21.036Z,39.53
2019-03-24T16:26:37.977Z,39.27
2019-03-24T16:30:54.986Z,30.10
2019-03-24T16:35:11.821Z,38.90
2019-03-24T16:39:28.425Z,33.57
2019-03-24T16:43:45.602Z,39.83
2019-03-24T16:48:02.901Z,36.03
2019-03-24T16:52:20.425Z,35.87
2019-03-24T16:56:37.552Z,28.60
2019-03-24T17:00:54.308Z,39.70
2019-03-24T17:05:11.049Z,36.87
2019-03-24T17:09:27.943Z,34.53
2019-03-24T17:13:45.687Z,46.00
2019-03-24T17:18:03.072Z,46.90
2019-03-24T17:22:19.583Z,31.80
2019-03-24T17:26:37.418Z,54.93
2019-03-24T17:30:54.939Z,45.60
2019-03-24T17:35:11.731Z,50.90
2019-03-24T17:39:30.200Z,43.30
2019-03-24T17:43:46.986Z,42.77
2019-03-24T17:48:05.503Z,39.83
2019-03-24T17:52:29.866Z,29.07
2019-03-24T17:56:46.421Z,36.97
2019-03-24T18:01:03.509Z,33.73
2019-03-24T18:05:20.259Z,26.33
2019-03-24T18:09:38.033Z,31.60
2019-03-24T18:13:58.189Z,27.83
2019-03-24T18:18:16.654Z,39.20
2019-03-24T18:22:33.697Z,32.07
2019-03-24T18:26:51.863Z,40.53
2019-03-24T18:31:10.268Z,34.27
2019-03-24T18:35:26.852Z,37.20
2019-03-24T18:39:43.309Z,46.40
2019-03-24T18:43:59.979Z,41.80
2019-03-24T18:48:16.474Z,42.67
2019-03-24T18:52:33.151Z,41.90
2019-03-24T18:56:51.621Z,32.57
2019-03-24T19:01:08.195Z,32.20
2019-03-24T19:05:24.698Z,37.70
2019-03-24T19:09:41.502Z,61.83
2019-03-24T19:13:58.851Z,55.80
2019-03-24T19:18:16.453Z,59.23
2019-03-24T19:22:35.395Z,42.53
2019-03-24T19:26:52.388Z,35.90
2019-03-24T19:31:09.937Z,33.67
2019-03-24T19:35:26.659Z,56.47
2019-03-24T19:39:43.379Z,78.70
2019-03-24T19:44:00.771Z,68.90
2019-03-24T19:48:17.338Z,61.20
2019-03-24T19:52:44.336Z,78.10
2019-03-24T19:56:54.262Z,88.40
2019-03-24T20:01:12.792Z,76.13
2019-03-24T20:05:49.418Z,74.70
2019-03-24T20:10:07.684Z,66.43
2019-03-24T20:14:24.312Z,55.40
2019-03-24T20:18:43.108Z,45.83
2019-03-24T20:22:59.971Z,48.30
2019-03-24T20:27:16.730Z,41.13
2019-03-24T20:31:33.290Z,67.10
2019-03-24T20:35:49.839Z,65.37
2019-03-24T20:40:10.058Z,46.00
2019-03-24T20:44:27.417Z,65.67
2019-03-24T20:48:43.946Z,78.63
2019-03-24T20:53:08.651Z,41.07
2019-03-24T20:57:20.686Z,54.03
2019-03-24T21:01:37.290Z,79.63
2019-03-24T21:05:53.830Z,71.47
2019-03-24T21:10:10.640Z,65.90
2019-03-24T21:14:27.381Z,72.10
2019-03-24T21:18:44.156Z,90.80
2019-03-24T21:23:00.668Z,79.37
2019-03-24T21:27:17.229Z,91.53
2019-03-24T21:31:33.983Z,77.77
2019-03-24T21:35:50.817Z,72.77
2019-03-24T21:40:07.541Z,101.40
2019-03-24T21:44:24.201Z,106.70
2019-03-24T21:48:40.678Z,94.00
2019-03-24T21:52:57.196Z,87.90
2019-03-24T21:57:13.731Z,94.90
2019-03-24T22:01:31.470Z,86.00
2019-03-24T22:05:48.010Z,77.47
2019-03-24T22:10:05.320Z,89.50
2019-03-24T22:14:21.852Z,88.93
2019-03-24T22:18:38.642Z,76.27
2019-03-24T22:22:55.208Z,68.07
2019-03-24T22:27:11.702Z,66.13
2019-03-24T22:31:29.305Z,73.20
2019-03-24T22:35:47.206Z,69.00
2019-03-24T22:40:05.791Z,66.33
2019-03-24T22:44:22.279Z,56.57
2019-03-24T22:48:38.749Z,51.10
2019-03-24T22:52:55.592Z,36.37
2019-03-24T22:57:12.215Z,24.87
2019-03-24T23:01:28.931Z,24.17
2019-03-24T23:05:45.926Z,35.47
2019-03-24T23:10:04.200Z,35.30
2019-03-24T23:14:21.174Z,58.13
2019-03-24T23:18:37.965Z,52.07
2019-03-24T23:22:54.597Z,40.37
2019-03-24T23:27:11.366Z,57.83
2019-03-24T23:31:27.959Z,48.83
2019-03-24T23:35:44.691Z,25.37
2019-03-24T23:40:01.209Z,40.97
2019-03-24T23:44:17.988Z,35.20
2019-03-24T23:48:34.777Z,32.77
2019-03-24T23:52:51.332Z,61.90
2019-03-24T23:57:08.161Z,54.60
